sensor_id;sensor_type;location;lat;lon;timestamp;temperature;humidity
23289;DHT22;11813;50.834;4.280;2024-01-07T00:01:31;4.50;99.90
23289;DHT22;11813;50.834;4.280;2024-01-07T00:03:57;4.60;99.90
23289;DHT22;11813;50.834;4.280;2024-01-07T00:06:23;4.60;99.90
23289;DHT22;11813;50.834;4.280;2024-01-07T00:08:48;4.60;99.90
23289;DHT22;11813;50.834;4.280;2024-01-07T00:11:14;4.60;99.90
23289;DHT22;11813;50.834;4.280;2024-01-07T00:13:39;4.60;99.90
23289;DHT22;11813;50.834;4.280;2024-01-07T00:16:05;4.50;99.90
23289;DHT22;11813;50.834;4.280;2024-01-07T00:18:31;4.50;99.90
23289;DHT22;11813;50.834;4.280;2024-01-07T00:20:57;4.50;99.90
23289;DHT22;11813;50.834;4.280;2024-01-07T00:23:22;4.50;99.90
23289;DHT22;11813;50.834;4.280;2024-01-07T00:25:48;4.50;99.90
23289;DHT22;11813;50.834;4.280;2024-01-07T00:28:14;4.40;99.90
23289;DHT22;11813;50.834;4.280;2024-01-07T00:30:39;4.50;99.90
23289;DHT22;11813;50.834;4.280;2024-01-07T00:33:05;4.50;99.90
23289;DHT22;11813;50.834;4.280;2024-01-07T00:35:30;4.50;99.90
23289;DHT22;11813;50.834;4.280;2024-01-07T00:37:56;4.60;99.90
23289;DHT22;11813;50.834;4.280;2024-01-07T00:40:23;4.60;99.90
23289;DHT22;11813;50.834;4.280;2024-01-07T00:42:49;4.60;99.90
23289;DHT22;11813;50.834;4.280;2024-01-07T00:45:14;4.60;99.90
23289;DHT22;11813;50.834;4.280;2024-01-07T00:47:40;4.60;99.90
23289;DHT22;11813;50.834;4.280;2024-01-07T00:50:06;4.60;99.90
23289;DHT22;11813;50.834;4.280;2024-01-07T00:52:32;4.70;99.90
23289;DHT22;11813;50.834;4.280;2024-01-07T00:54:58;4.80;99.90
23289;DHT22;11813;50.834;4.280;2024-01-07T00:57:23;4.90;99.90
23289;DHT22;11813;50.834;4.280;2024-01-07T00:59:49;4.80;99.90
23289;DHT22;11813;50.834;4.280;2024-01-07T01:02:16;4.80;99.90
23289;DHT22;11813;50.834;4.280;2024-01-07T01:04:41;4.90;99.90
23289;DHT22;11813;50.834;4.280;2024-01-07T01:07:07;4.80;99.90
23289;DHT22;11813;50.834;4.280;2024-01-07T01:09:35;4.80;99.90
23289;DHT22;11813;50.834;4.280;2024-01-07T01:12:01;4.80;99.90
23289;DHT22;11813;50.834;4.280;2024-01-07T01:14:27;4.80;99.90
23289;DHT22;11813;50.834;4.280;2024-01-07T01:16:53;5.00;99.90
23289;DHT22;11813;50.834;4.280;2024-01-07T01:19:18;5.10;99.90
23289;DHT22;11813;50.834;4.280;2024-01-07T01:21:44;5.10;99.90
23289;DHT22;11813;50.834;4.280;2024-01-07T01:24:09;5.00;99.90
23289;DHT22;11813;50.834;4.280;2024-01-07T01:26:35;5.00;99.90
23289;DHT22;11813;50.834;4.280;2024-01-07T01:29:01;5.00;99.90
23289;DHT22;11813;50.834;4.280;2024-01-07T01:31:27;5.00;99.90
23289;DHT22;11813;50.834;4.280;2024-01-07T01:33:52;5.00;99.90
23289;DHT22;11813;50.834;4.280;2024-01-07T01:36:18;4.90;99.90
23289;DHT22;11813;50.834;4.280;2024-01-07T01:38:43;4.90;99.90
23289;DHT22;11813;50.834;4.280;2024-01-07T01:41:09;4.70;99.90
23289;DHT22;11813;50.834;4.280;2024-01-07T01:43:35;4.80;99.90
23289;DHT22;11813;50.834;4.280;2024-01-07T01:46:02;4.80;99.90
23289;DHT22;11813;50.834;4.280;2024-01-07T01:48:29;4.80;99.90
23289;DHT22;11813;50.834;4.280;2024-01-07T01:50:55;4.80;99.90
23289;DHT22;11813;50.834;4.280;2024-01-07T01:53:26;4.80;99.90
23289;DHT22;11813;50.834;4.280;2024-01-07T01:55:52;4.80;99.90
23289;DHT22;11813;50.834;4.280;2024-01-07T01:58:20;4.80;99.90
23289;DHT22;11813;50.834;4.280;2024-01-07T02:00:47;4.70;99.90
23289;DHT22;11813;50.834;4.280;2024-01-07T02:03:12;4.70;99.90
23289;DHT22;11813;50.834;4.280;2024-01-07T02:05:38;4.70;99.90
23289;DHT22;11813;50.834;4.280;2024-01-07T02:08:05;4.70;99.90
23289;DHT22;11813;50.834;4.280;2024-01-07T02:10:31;4.70;99.90
23289;DHT22;11813;50.834;4.280;2024-01-07T02:13:00;4.70;99.90
23289;DHT22;11813;50.834;4.280;2024-01-07T02:15:26;4.70;99.90
23289;DHT22;11813;50.834;4.280;2024-01-07T02:17:52;4.70;99.90
23289;DHT22;11813;50.834;4.280;2024-01-07T02:20:17;4.70;99.90
23289;DHT22;11813;50.834;4.280;2024-01-07T02:22:43;4.60;99.90
23289;DHT22;11813;50.834;4.280;2024-01-07T02:25:09;4.50;99.90
23289;DHT22;11813;50.834;4.280;2024-01-07T02:27:35;4.50;99.90
23289;DHT22;11813;50.834;4.280;2024-01-07T02:30:00;4.30;99.90
23289;DHT22;11813;50.834;4.280;2024-01-07T02:32:26;4.10;99.90
23289;DHT22;11813;50.834;4.280;2024-01-07T02:34:52;4.10;99.90
23289;DHT22;11813;50.834;4.280;2024-01-07T02:37:18;4.00;99.90
23289;DHT22;11813;50.834;4.280;2024-01-07T02:39:44;4.20;99.90
23289;DHT22;11813;50.834;4.280;2024-01-07T02:42:10;4.20;99.90
23289;DHT22;11813;50.834;4.280;2024-01-07T02:44:35;4.10;99.90
23289;DHT22;11813;50.834;4.280;2024-01-07T02:47:01;4.00;99.90
23289;DHT22;11813;50.834;4.280;2024-01-07T02:49:28;3.90;99.90
23289;DHT22;11813;50.834;4.280;2024-01-07T02:51:54;4.00;99.90
23289;DHT22;11813;50.834;4.280;2024-01-07T02:54:19;4.00;99.90
23289;DHT22;11813;50.834;4.280;2024-01-07T02:56:45;4.10;99.90
23289;DHT22;11813;50.834;4.280;2024-01-07T02:59:11;4.00;99.90
23289;DHT22;11813;50.834;4.280;2024-01-07T03:01:36;4.00;99.90
23289;DHT22;11813;50.834;4.280;2024-01-07T03:04:07;4.00;99.90
23289;DHT22;11813;50.834;4.280;2024-01-07T03:06:33;4.10;99.90
23289;DHT22;11813;50.834;4.280;2024-01-07T03:08:59;4.10;99.90
23289;DHT22;11813;50.834;4.280;2024-01-07T03:11:24;4.10;99.90
23289;DHT22;11813;50.834;4.280;2024-01-07T03:13:50;4.10;99.90
23289;DHT22;11813;50.834;4.280;2024-01-07T03:16:20;4.10;99.90
23289;DHT22;11813;50.834;4.280;2024-01-07T03:18:45;4.10;99.90
23289;DHT22;11813;50.834;4.280;2024-01-07T03:21:18;4.10;99.90
23289;DHT22;11813;50.834;4.280;2024-01-07T03:23:45;4.20;99.90
23289;DHT22;11813;50.834;4.280;2024-01-07T03:26:11;4.20;99.90
23289;DHT22;11813;50.834;4.280;2024-01-07T03:28:36;4.20;99.90
23289;DHT22;11813;50.834;4.280;2024-01-07T03:31:07;4.30;99.90
23289;DHT22;11813;50.834;4.280;2024-01-07T03:33:33;4.30;99.90
23289;DHT22;11813;50.834;4.280;2024-01-07T03:35:59;4.20;99.90
23289;DHT22;11813;50.834;4.280;2024-01-07T03:38:24;4.20;99.90
23289;DHT22;11813;50.834;4.280;2024-01-07T03:40:50;4.20;99.90
23289;DHT22;11813;50.834;4.280;2024-01-07T03:43:16;4.10;99.90
23289;DHT22;11813;50.834;4.280;2024-01-07T03:45:41;4.10;99.90
23289;DHT22;11813;50.834;4.280;2024-01-07T03:48:09;4.10;99.90
23289;DHT22;11813;50.834;4.280;2024-01-07T03:50:34;4.20;99.90
23289;DHT22;11813;50.834;4.280;2024-01-07T03:53:00;4.10;99.90
23289;DHT22;11813;50.834;4.280;2024-01-07T03:55:26;4.10;99.90
23289;DHT22;11813;50.834;4.280;2024-01-07T03:57:51;4.00;99.90
23289;DHT22;11813;50.834;4.280;2024-01-07T04:00:17;4.00;99.90
23289;DHT22;11813;50.834;4.280;2024-01-07T04:02:42;3.90;99.90
23289;DHT22;11813;50.834;4.280;2024-01-07T04:05:09;3.90;99.90
23289;DHT22;11813;50.834;4.280;2024-01-07T04:07:35;4.00;99.90
23289;DHT22;11813;50.834;4.280;2024-01-07T04:10:00;4.10;99.90
23289;DHT22;11813;50.834;4.280;2024-01-07T04:12:26;4.10;99.90
23289;DHT22;11813;50.834;4.280;2024-01-07T04:14:51;4.20;99.90
23289;DHT22;11813;50.834;4.280;2024-01-07T04:17:17;4.20;99.90
23289;DHT22;11813;50.834;4.280;2024-01-07T04:19:43;4.30;99.90
23289;DHT22;11813;50.834;4.280;2024-01-07T04:22:08;4.10;99.90
23289;DHT22;11813;50.834;4.280;2024-01-07T04:24:34;4.20;99.90
23289;DHT22;11813;50.834;4.280;2024-01-07T04:26:59;4.20;99.90
23289;DHT22;11813;50.834;4.280;2024-01-07T04:29:25;4.20;99.90
23289;DHT22;11813;50.834;4.280;2024-01-07T04:31:51;4.30;99.90
23289;DHT22;11813;50.834;4.280;2024-01-07T04:34:16;4.40;99.90
23289;DHT22;11813;50.834;4.280;2024-01-07T04:36:42;4.40;99.90
23289;DHT22;11813;50.834;4.280;2024-01-07T04:39:08;4.20;99.90
23289;DHT22;11813;50.834;4.280;2024-01-07T04:41:35;4.10;99.90
23289;DHT22;11813;50.834;4.280;2024-01-07T04:44:00;4.00;99.90
23289;DHT22;11813;50.834;4.280;2024-01-07T04:46:26;3.90;99.90
23289;DHT22;11813;50.834;4.280;2024-01-07T04:48:52;4.00;99.90
23289;DHT22;11813;50.834;4.280;2024-01-07T04:51:17;3.90;99.90
23289;DHT22;11813;50.834;4.280;2024-01-07T04:53:43;3.90;99.90
23289;DHT22;11813;50.834;4.280;2024-01-07T04:56:08;4.00;99.90
23289;DHT22;11813;50.834;4.280;2024-01-07T04:58:34;4.00;99.90
23289;DHT22;11813;50.834;4.280;2024-01-07T05:00:59;3.80;99.90
23289;DHT22;11813;50.834;4.280;2024-01-07T05:03:25;3.90;99.90
23289;DHT22;11813;50.834;4.280;2024-01-07T05:05:51;3.90;99.90
23289;DHT22;11813;50.834;4.280;2024-01-07T05:08:16;3.80;99.90
23289;DHT22;11813;50.834;4.280;2024-01-07T05:10:42;3.70;99.90
23289;DHT22;11813;50.834;4.280;2024-01-07T05:13:08;3.80;99.90
23289;DHT22;11813;50.834;4.280;2024-01-07T05:15:33;3.90;99.90
23289;DHT22;11813;50.834;4.280;2024-01-07T05:17:59;4.00;99.90
23289;DHT22;11813;50.834;4.280;2024-01-07T05:20:25;4.00;99.90
23289;DHT22;11813;50.834;4.280;2024-01-07T05:22:50;3.80;99.90
23289;DHT22;11813;50.834;4.280;2024-01-07T05:25:16;3.80;99.90
23289;DHT22;11813;50.834;4.280;2024-01-07T05:27:41;3.70;99.90
23289;DHT22;11813;50.834;4.280;2024-01-07T05:30:07;3.70;99.90
23289;DHT22;11813;50.834;4.280;2024-01-07T05:32:33;3.70;99.90
23289;DHT22;11813;50.834;4.280;2024-01-07T05:34:59;3.80;99.90
23289;DHT22;11813;50.834;4.280;2024-01-07T05:37:24;3.90;99.90
23289;DHT22;11813;50.834;4.280;2024-01-07T05:39:50;3.90;99.90
23289;DHT22;11813;50.834;4.280;2024-01-07T05:42:16;3.90;99.90
23289;DHT22;11813;50.834;4.280;2024-01-07T05:44:42;4.00;99.90
23289;DHT22;11813;50.834;4.280;2024-01-07T05:47:08;4.00;99.90
23289;DHT22;11813;50.834;4.280;2024-01-07T05:49:33;4.00;99.90
23289;DHT22;11813;50.834;4.280;2024-01-07T05:51:59;4.10;99.90
23289;DHT22;11813;50.834;4.280;2024-01-07T05:54:24;4.20;99.90
23289;DHT22;11813;50.834;4.280;2024-01-07T05:56:50;4.20;99.90
23289;DHT22;11813;50.834;4.280;2024-01-07T05:59:16;4.20;99.90
23289;DHT22;11813;50.834;4.280;2024-01-07T06:01:42;4.20;99.90
23289;DHT22;11813;50.834;4.280;2024-01-07T06:04:07;4.00;99.90
23289;DHT22;11813;50.834;4.280;2024-01-07T06:06:33;3.90;99.90
23289;DHT22;11813;50.834;4.280;2024-01-07T06:08:59;3.90;99.90
23289;DHT22;11813;50.834;4.280;2024-01-07T06:11:25;4.00;99.90
23289;DHT22;11813;50.834;4.280;2024-01-07T06:13:50;4.10;99.90
23289;DHT22;11813;50.834;4.280;2024-01-07T06:16:16;4.20;99.90
23289;DHT22;11813;50.834;4.280;2024-01-07T06:18:41;4.30;99.90
23289;DHT22;11813;50.834;4.280;2024-01-07T06:21:07;4.20;99.90
23289;DHT22;11813;50.834;4.280;2024-01-07T06:23:33;4.00;99.90
23289;DHT22;11813;50.834;4.280;2024-01-07T06:25:59;3.80;99.90
23289;DHT22;11813;50.834;4.280;2024-01-07T06:28:24;3.80;99.90
23289;DHT22;11813;50.834;4.280;2024-01-07T06:30:50;3.70;99.90
23289;DHT22;11813;50.834;4.280;2024-01-07T06:33:16;3.70;99.90
23289;DHT22;11813;50.834;4.280;2024-01-07T06:35:41;3.70;99.90
23289;DHT22;11813;50.834;4.280;2024-01-07T06:38:07;3.90;99.90
23289;DHT22;11813;50.834;4.280;2024-01-07T06:40:32;4.00;99.90
23289;DHT22;11813;50.834;4.280;2024-01-07T06:42:59;4.00;99.90
23289;DHT22;11813;50.834;4.280;2024-01-07T06:45:25;4.00;99.90
23289;DHT22;11813;50.834;4.280;2024-01-07T06:47:50;4.00;99.90
23289;DHT22;11813;50.834;4.280;2024-01-07T06:50:16;4.10;99.90
23289;DHT22;11813;50.834;4.280;2024-01-07T06:52:42;4.00;99.90
23289;DHT22;11813;50.834;4.280;2024-01-07T06:55:07;4.00;99.90
23289;DHT22;11813;50.834;4.280;2024-01-07T06:57:33;3.90;99.90
23289;DHT22;11813;50.834;4.280;2024-01-07T06:59:59;3.80;99.90
23289;DHT22;11813;50.834;4.280;2024-01-07T07:02:24;3.70;99.90
23289;DHT22;11813;50.834;4.280;2024-01-07T07:04:50;3.70;99.90
23289;DHT22;11813;50.834;4.280;2024-01-07T07:07:17;3.70;99.90
23289;DHT22;11813;50.834;4.280;2024-01-07T07:09:42;3.50;99.90
23289;DHT22;11813;50.834;4.280;2024-01-07T07:12:08;3.50;99.90
23289;DHT22;11813;50.834;4.280;2024-01-07T07:14:35;3.40;99.90
23289;DHT22;11813;50.834;4.280;2024-01-07T07:17:01;3.60;99.90
23289;DHT22;11813;50.834;4.280;2024-01-07T07:19:26;3.70;99.90
23289;DHT22;11813;50.834;4.280;2024-01-07T07:21:52;3.50;99.90
23289;DHT22;11813;50.834;4.280;2024-01-07T07:24:18;3.50;99.90
23289;DHT22;11813;50.834;4.280;2024-01-07T07:26:43;3.50;99.90
23289;DHT22;11813;50.834;4.280;2024-01-07T07:29:09;3.60;99.90
23289;DHT22;11813;50.834;4.280;2024-01-07T07:31:37;3.60;99.90
23289;DHT22;11813;50.834;4.280;2024-01-07T07:34:04;3.70;99.90
23289;DHT22;11813;50.834;4.280;2024-01-07T07:36:29;3.70;99.90
23289;DHT22;11813;50.834;4.280;2024-01-07T07:38:55;3.70;99.90
23289;DHT22;11813;50.834;4.280;2024-01-07T07:41:20;3.70;99.90
23289;DHT22;11813;50.834;4.280;2024-01-07T07:43:46;3.80;99.90
23289;DHT22;11813;50.834;4.280;2024-01-07T07:46:12;3.90;99.90
23289;DHT22;11813;50.834;4.280;2024-01-07T07:48:38;3.90;99.90
23289;DHT22;11813;50.834;4.280;2024-01-07T07:51:04;3.80;99.90
23289;DHT22;11813;50.834;4.280;2024-01-07T07:53:30;3.70;99.90
23289;DHT22;11813;50.834;4.280;2024-01-07T07:55:56;3.80;99.90
23289;DHT22;11813;50.834;4.280;2024-01-07T07:58:21;3.80;99.90
23289;DHT22;11813;50.834;4.280;2024-01-07T08:00:47;3.80;99.90
23289;DHT22;11813;50.834;4.280;2024-01-07T08:03:13;3.90;99.90
23289;DHT22;11813;50.834;4.280;2024-01-07T08:05:39;3.80;99.90
23289;DHT22;11813;50.834;4.280;2024-01-07T08:08:06;3.80;99.90
23289;DHT22;11813;50.834;4.280;2024-01-07T08:10:31;3.90;99.90
23289;DHT22;11813;50.834;4.280;2024-01-07T08:12:57;3.80;99.90
23289;DHT22;11813;50.834;4.280;2024-01-07T08:15:23;3.80;99.90
23289;DHT22;11813;50.834;4.280;2024-01-07T08:17:51;3.80;99.90
23289;DHT22;11813;50.834;4.280;2024-01-07T08:20:17;3.80;99.90
23289;DHT22;11813;50.834;4.280;2024-01-07T08:22:42;3.80;99.90
23289;DHT22;11813;50.834;4.280;2024-01-07T08:25:08;3.70;99.90
23289;DHT22;11813;50.834;4.280;2024-01-07T08:27:34;3.70;99.90
23289;DHT22;11813;50.834;4.280;2024-01-07T08:30:01;3.60;99.90
23289;DHT22;11813;50.834;4.280;2024-01-07T08:32:27;3.70;99.90
23289;DHT22;11813;50.834;4.280;2024-01-07T08:34:52;3.70;99.90
23289;DHT22;11813;50.834;4.280;2024-01-07T08:37:18;3.80;99.90
23289;DHT22;11813;50.834;4.280;2024-01-07T08:39:44;3.80;99.90
23289;DHT22;11813;50.834;4.280;2024-01-07T08:42:09;3.70;99.90
23289;DHT22;11813;50.834;4.280;2024-01-07T08:44:35;3.80;99.90
23289;DHT22;11813;50.834;4.280;2024-01-07T08:47:01;3.90;99.90
23289;DHT22;11813;50.834;4.280;2024-01-07T08:49:28;3.80;99.90
23289;DHT22;11813;50.834;4.280;2024-01-07T08:51:54;3.70;99.90
23289;DHT22;11813;50.834;4.280;2024-01-07T08:54:21;3.70;99.90
23289;DHT22;11813;50.834;4.280;2024-01-07T08:56:47;3.80;99.90
23289;DHT22;11813;50.834;4.280;2024-01-07T08:59:13;3.70;99.90
23289;DHT22;11813;50.834;4.280;2024-01-07T09:01:38;3.60;99.90
23289;DHT22;11813;50.834;4.280;2024-01-07T09:04:04;3.50;99.90
23289;DHT22;11813;50.834;4.280;2024-01-07T09:06:29;3.50;99.90
23289;DHT22;11813;50.834;4.280;2024-01-07T09:08:55;3.60;99.90
23289;DHT22;11813;50.834;4.280;2024-01-07T09:11:21;3.60;99.90
23289;DHT22;11813;50.834;4.280;2024-01-07T09:13:47;3.60;99.90
23289;DHT22;11813;50.834;4.280;2024-01-07T09:16:16;3.60;99.90
23289;DHT22;11813;50.834;4.280;2024-01-07T09:18:41;3.60;99.90
23289;DHT22;11813;50.834;4.280;2024-01-07T09:21:09;3.50;99.90
23289;DHT22;11813;50.834;4.280;2024-01-07T09:23:35;3.50;99.90
23289;DHT22;11813;50.834;4.280;2024-01-07T09:26:01;3.40;99.90
23289;DHT22;11813;50.834;4.280;2024-01-07T09:28:27;3.50;99.90
23289;DHT22;11813;50.834;4.280;2024-01-07T09:30:52;3.40;99.90
23289;DHT22;11813;50.834;4.280;2024-01-07T09:33:19;3.50;99.90
23289;DHT22;11813;50.834;4.280;2024-01-07T09:35:45;3.50;99.90
23289;DHT22;11813;50.834;4.280;2024-01-07T09:38:11;3.50;99.90
23289;DHT22;11813;50.834;4.280;2024-01-07T09:40:38;3.50;99.90
23289;DHT22;11813;50.834;4.280;2024-01-07T09:43:05;3.50;99.90
23289;DHT22;11813;50.834;4.280;2024-01-07T09:45:31;3.50;99.90
23289;DHT22;11813;50.834;4.280;2024-01-07T09:47:57;3.50;99.90
23289;DHT22;11813;50.834;4.280;2024-01-07T09:50:23;3.50;99.90
23289;DHT22;11813;50.834;4.280;2024-01-07T09:52:48;3.50;99.90
23289;DHT22;11813;50.834;4.280;2024-01-07T09:55:32;3.50;99.90
23289;DHT22;11813;50.834;4.280;2024-01-07T09:57:58;3.50;99.90
23289;DHT22;11813;50.834;4.280;2024-01-07T10:00:26;3.50;99.90
23289;DHT22;11813;50.834;4.280;2024-01-07T10:02:52;3.50;99.90
23289;DHT22;11813;50.834;4.280;2024-01-07T10:05:18;3.60;99.90
23289;DHT22;11813;50.834;4.280;2024-01-07T10:07:44;3.70;99.90
23289;DHT22;11813;50.834;4.280;2024-01-07T10:10:16;3.80;99.90
23289;DHT22;11813;50.834;4.280;2024-01-07T10:12:44;3.80;99.90
23289;DHT22;11813;50.834;4.280;2024-01-07T10:15:11;3.70;99.90
23289;DHT22;11813;50.834;4.280;2024-01-07T10:17:36;3.70;99.90
23289;DHT22;11813;50.834;4.280;2024-01-07T10:20:04;3.60;99.90
23289;DHT22;11813;50.834;4.280;2024-01-07T10:22:31;3.60;99.90
23289;DHT22;11813;50.834;4.280;2024-01-07T10:24:57;3.50;99.90
23289;DHT22;11813;50.834;4.280;2024-01-07T10:27:23;3.50;99.90
23289;DHT22;11813;50.834;4.280;2024-01-07T10:29:50;3.50;99.90
23289;DHT22;11813;50.834;4.280;2024-01-07T10:32:19;3.50;99.90
23289;DHT22;11813;50.834;4.280;2024-01-07T10:34:46;3.50;99.90
23289;DHT22;11813;50.834;4.280;2024-01-07T10:37:15;3.50;99.90
23289;DHT22;11813;50.834;4.280;2024-01-07T10:39:40;3.60;99.90
23289;DHT22;11813;50.834;4.280;2024-01-07T10:42:06;3.50;99.90
23289;DHT22;11813;50.834;4.280;2024-01-07T10:44:33;3.40;99.90
23289;DHT22;11813;50.834;4.280;2024-01-07T10:46:59;3.40;99.90
23289;DHT22;11813;50.834;4.280;2024-01-07T10:49:27;3.40;99.90
23289;DHT22;11813;50.834;4.280;2024-01-07T10:52:05;3.40;99.90
23289;DHT22;11813;50.834;4.280;2024-01-07T10:54:32;3.40;99.90
23289;DHT22;11813;50.834;4.280;2024-01-07T10:57:17;3.40;99.90
23289;DHT22;11813;50.834;4.280;2024-01-07T10:59:45;3.40;99.90
23289;DHT22;11813;50.834;4.280;2024-01-07T11:02:12;3.40;99.90
23289;DHT22;11813;50.834;4.280;2024-01-07T11:05:17;3.50;99.90
23289;DHT22;11813;50.834;4.280;2024-01-07T11:10:35;3.50;99.90
23289;DHT22;11813;50.834;4.280;2024-01-07T11:13:02;3.60;99.90
23289;DHT22;11813;50.834;4.280;2024-01-07T11:18:19;3.70;99.90
23289;DHT22;11813;50.834;4.280;2024-01-07T11:20:46;3.70;99.90
23289;DHT22;11813;50.834;4.280;2024-01-07T11:23:28;3.70;99.90
23289;DHT22;11813;50.834;4.280;2024-01-07T11:26:01;3.80;99.90
23289;DHT22;11813;50.834;4.280;2024-01-07T11:28:53;3.80;99.90
23289;DHT22;11813;50.834;4.280;2024-01-07T11:31:20;3.70;99.90
23289;DHT22;11813;50.834;4.280;2024-01-07T11:33:50;3.70;99.90
23289;DHT22;11813;50.834;4.280;2024-01-07T11:36:16;3.60;99.90
23289;DHT22;11813;50.834;4.280;2024-01-07T11:38:49;3.40;99.90
23289;DHT22;11813;50.834;4.280;2024-01-07T11:41:16;3.40;99.90
23289;DHT22;11813;50.834;4.280;2024-01-07T11:43:56;3.50;99.90
23289;DHT22;11813;50.834;4.280;2024-01-07T11:46:23;3.50;99.90
23289;DHT22;11813;50.834;4.280;2024-01-07T11:48:52;3.60;99.90
23289;DHT22;11813;50.834;4.280;2024-01-07T11:51:18;3.50;99.90
23289;DHT22;11813;50.834;4.280;2024-01-07T11:53:46;3.40;99.90
23289;DHT22;11813;50.834;4.280;2024-01-07T11:56:12;3.30;99.90
23289;DHT22;11813;50.834;4.280;2024-01-07T11:58:40;3.20;99.90
23289;DHT22;11813;50.834;4.280;2024-01-07T12:01:06;3.20;99.90
23289;DHT22;11813;50.834;4.280;2024-01-07T12:03:31;3.20;99.90
23289;DHT22;11813;50.834;4.280;2024-01-07T12:05:57;3.30;99.90
23289;DHT22;11813;50.834;4.280;2024-01-07T12:08:22;3.30;99.90
23289;DHT22;11813;50.834;4.280;2024-01-07T12:10:49;3.40;99.90
23289;DHT22;11813;50.834;4.280;2024-01-07T12:13:15;3.30;99.90
23289;DHT22;11813;50.834;4.280;2024-01-07T12:15:41;3.30;99.90
23289;DHT22;11813;50.834;4.280;2024-01-07T12:18:09;3.30;99.90
23289;DHT22;11813;50.834;4.280;2024-01-07T12:20:35;3.30;99.90
23289;DHT22;11813;50.834;4.280;2024-01-07T12:23:07;3.30;99.90
23289;DHT22;11813;50.834;4.280;2024-01-07T12:25:33;3.40;99.90
23289;DHT22;11813;50.834;4.280;2024-01-07T12:28:00;3.30;99.90
23289;DHT22;11813;50.834;4.280;2024-01-07T12:30:26;3.40;99.90
23289;DHT22;11813;50.834;4.280;2024-01-07T12:32:52;3.40;99.90
23289;DHT22;11813;50.834;4.280;2024-01-07T12:35:18;3.40;99.90
23289;DHT22;11813;50.834;4.280;2024-01-07T12:37:44;3.20;99.90
23289;DHT22;11813;50.834;4.280;2024-01-07T12:40:10;3.40;99.90
23289;DHT22;11813;50.834;4.280;2024-01-07T12:42:40;3.40;99.90
23289;DHT22;11813;50.834;4.280;2024-01-07T12:45:14;3.30;99.90
23289;DHT22;11813;50.834;4.280;2024-01-07T12:47:40;3.30;99.90
23289;DHT22;11813;50.834;4.280;2024-01-07T12:50:07;3.10;99.90
23289;DHT22;11813;50.834;4.280;2024-01-07T12:52:39;3.20;99.90
23289;DHT22;11813;50.834;4.280;2024-01-07T12:55:06;3.30;99.90
23289;DHT22;11813;50.834;4.280;2024-01-07T12:57:32;3.30;99.90
23289;DHT22;11813;50.834;4.280;2024-01-07T12:59:58;3.30;99.90
23289;DHT22;11813;50.834;4.280;2024-01-07T13:02:23;3.20;99.90
23289;DHT22;11813;50.834;4.280;2024-01-07T13:04:50;3.20;99.90
23289;DHT22;11813;50.834;4.280;2024-01-07T13:07:16;3.30;99.90
23289;DHT22;11813;50.834;4.280;2024-01-07T13:09:42;3.30;99.90
23289;DHT22;11813;50.834;4.280;2024-01-07T13:12:07;3.40;99.90
23289;DHT22;11813;50.834;4.280;2024-01-07T13:14:33;3.50;99.90
23289;DHT22;11813;50.834;4.280;2024-01-07T13:16:59;3.60;99.90
23289;DHT22;11813;50.834;4.280;2024-01-07T13:19:24;3.50;99.90
23289;DHT22;11813;50.834;4.280;2024-01-07T13:21:52;3.50;99.90
23289;DHT22;11813;50.834;4.280;2024-01-07T13:24:20;3.50;99.90
23289;DHT22;11813;50.834;4.280;2024-01-07T13:26:47;3.40;99.90
23289;DHT22;11813;50.834;4.280;2024-01-07T13:29:12;3.40;99.90
23289;DHT22;11813;50.834;4.280;2024-01-07T13:31:38;3.30;99.90
23289;DHT22;11813;50.834;4.280;2024-01-07T13:34:03;3.30;99.90
23289;DHT22;11813;50.834;4.280;2024-01-07T13:36:29;3.20;99.90
23289;DHT22;11813;50.834;4.280;2024-01-07T13:38:55;3.20;99.90
23289;DHT22;11813;50.834;4.280;2024-01-07T13:41:20;3.20;99.90
23289;DHT22;11813;50.834;4.280;2024-01-07T13:43:46;3.10;99.90
23289;DHT22;11813;50.834;4.280;2024-01-07T13:46:11;3.10;99.90
23289;DHT22;11813;50.834;4.280;2024-01-07T13:48:37;3.10;99.90
23289;DHT22;11813;50.834;4.280;2024-01-07T13:51:05;3.00;99.90
23289;DHT22;11813;50.834;4.280;2024-01-07T13:53:31;3.10;99.90
23289;DHT22;11813;50.834;4.280;2024-01-07T13:55:57;3.00;99.90
23289;DHT22;11813;50.834;4.280;2024-01-07T13:58:22;2.90;99.90
23289;DHT22;11813;50.834;4.280;2024-01-07T14:00:49;2.90;99.90
23289;DHT22;11813;50.834;4.280;2024-01-07T14:03:14;3.00;99.90
23289;DHT22;11813;50.834;4.280;2024-01-07T14:05:40;3.10;99.90
23289;DHT22;11813;50.834;4.280;2024-01-07T14:08:06;3.00;99.90
23289;DHT22;11813;50.834;4.280;2024-01-07T14:10:32;3.00;99.90
23289;DHT22;11813;50.834;4.280;2024-01-07T14:12:57;3.10;99.90
23289;DHT22;11813;50.834;4.280;2024-01-07T14:15:23;3.10;99.90
23289;DHT22;11813;50.834;4.280;2024-01-07T14:17:49;3.00;99.90
23289;DHT22;11813;50.834;4.280;2024-01-07T14:20:14;2.90;99.90
23289;DHT22;11813;50.834;4.280;2024-01-07T14:22:40;2.90;99.90
23289;DHT22;11813;50.834;4.280;2024-01-07T14:25:06;2.90;99.90
23289;DHT22;11813;50.834;4.280;2024-01-07T14:27:32;2.90;99.90
23289;DHT22;11813;50.834;4.280;2024-01-07T14:29:57;3.00;99.90
23289;DHT22;11813;50.834;4.280;2024-01-07T14:32:23;3.00;99.90
23289;DHT22;11813;50.834;4.280;2024-01-07T14:34:49;3.00;99.90
23289;DHT22;11813;50.834;4.280;2024-01-07T14:37:16;2.90;99.90
23289;DHT22;11813;50.834;4.280;2024-01-07T14:39:41;3.00;99.90
23289;DHT22;11813;50.834;4.280;2024-01-07T14:42:08;3.10;99.90
23289;DHT22;11813;50.834;4.280;2024-01-07T14:44:34;3.10;99.90
23289;DHT22;11813;50.834;4.280;2024-01-07T14:47:00;3.20;99.90
23289;DHT22;11813;50.834;4.280;2024-01-07T14:49:25;3.00;99.90
23289;DHT22;11813;50.834;4.280;2024-01-07T14:51:51;2.90;99.90
23289;DHT22;11813;50.834;4.280;2024-01-07T14:54:16;2.90;99.90
23289;DHT22;11813;50.834;4.280;2024-01-07T14:56:42;2.80;99.90
23289;DHT22;11813;50.834;4.280;2024-01-07T14:59:08;2.80;99.90
23289;DHT22;11813;50.834;4.280;2024-01-07T15:01:34;2.90;99.90
23289;DHT22;11813;50.834;4.280;2024-01-07T15:04:00;3.00;99.90
23289;DHT22;11813;50.834;4.280;2024-01-07T15:06:25;3.00;99.90
23289;DHT22;11813;50.834;4.280;2024-01-07T15:08:52;2.90;99.90
23289;DHT22;11813;50.834;4.280;2024-01-07T15:11:19;2.80;99.90
23289;DHT22;11813;50.834;4.280;2024-01-07T15:13:45;2.80;99.90
23289;DHT22;11813;50.834;4.280;2024-01-07T15:16:11;2.80;99.90
23289;DHT22;11813;50.834;4.280;2024-01-07T15:18:36;2.90;99.90
23289;DHT22;11813;50.834;4.280;2024-01-07T15:21:03;2.80;99.90
23289;DHT22;11813;50.834;4.280;2024-01-07T15:23:29;2.90;99.90
23289;DHT22;11813;50.834;4.280;2024-01-07T15:25:54;2.80;99.90
23289;DHT22;11813;50.834;4.280;2024-01-07T15:28:20;2.80;99.90
23289;DHT22;11813;50.834;4.280;2024-01-07T15:30:45;2.80;99.90
23289;DHT22;11813;50.834;4.280;2024-01-07T15:33:12;2.80;99.90
23289;DHT22;11813;50.834;4.280;2024-01-07T15:35:38;2.70;99.90
23289;DHT22;11813;50.834;4.280;2024-01-07T15:38:04;2.70;99.90
23289;DHT22;11813;50.834;4.280;2024-01-07T15:40:30;2.80;99.90
23289;DHT22;11813;50.834;4.280;2024-01-07T15:42:56;2.80;99.90
23289;DHT22;11813;50.834;4.280;2024-01-07T15:45:22;2.80;99.90